Ana Sayfa
METAR-TAF:

METAR-TAF

Havaalanları :

Mykonos, Yunanistan

Enlem: 37-26-09N, Boylam: 025-20-45E, yükseklik: 123 m

Güncel hava durumu gözlemi

Rapor saat 21:50 UTC de 1 saat ve 27 dakika önce yapıldı.
Rüzgar kuzey/kuzeydoğudan 11 kt
Sıcaklık 11°C
Nem 76%
Basınç 1025 hPa
Görüş mesafesi 10 km veya daha fazla
1800 ft yükseklikte az bulutlu

METAR: LGMK 202150Z 02011KT 9999 FEW018 11/07 Q1025

Saat: 02:17 (23:17 UTC)

Tahmin

Rapor saat 20:00 UTC de 3 saat ve 17 dakika önce yapıldı.
Ayın 20'si saat 21 UTC'den ayın 21'si saat 06 UTC'ye kadar geçerli Tahmin
Rüzgar kuzeydan 23 kt
Görüş mesafesi 10 km veya daha fazla
2000 ft yükseklikte az bulutlu
Geçici
ayın 20'si saat 21 UTC'den ayın 21'si saat 06 UTC'ye kadar
Rüzgar kuzeydan 23 kt ve 33 kt'a kadar ani rüzgarlar

TAF: LGMK 202000Z 2021/2106 36023KT 9999 FEW020 TEMPO 2021/2106 36023G33KT

4.000'den fazla havaalanı için hava durumu gözlemleri ve tahminleri (METAR ve TAF raporları).

Kullanılabilir istasyonlar harita üzerinde sarı ve kırmızı noktalarla gösterilir.

İstasyonun adını görmek için fareyi noktanın üzerinde gezdirin.

Sonrasında hava gözlem ve tahminlerini görmek için tıklayın.

Haritayı değiştirmek için: yaklaştırmak için siyah artı işaretli yeşil düğmeye ve uzaklaştırmak için de eksi işaretli düğmeye hızla tıklayın; bitişik haritalar için yeşil okları kullanın.


METAR-TAF: